SCBA/BBA METAR and TAF weather

Enter ICAO airport designator
Station Type Date Time Source
SCBA METAR 2019/09/20 20:00 UTC NOAA

SCBA 202000Z 28029KT 9999 SCT030 05/02 Q1005 RESHRA


Station Type Date Time Source
SCBA Decoded METAR 2019/09/20 20:00 UTC NOAA

Balmaceda, Chile (SCBA) 45-55S 071-41W 520M
Sep 20, 2019 - 04:00 PM EDT / 2019.09.20 2000 UTC
Wind: from the W (280 degrees) at 33 MPH (29 KT):0
Visibility: greater than 7 mile(s):0
Sky conditions: partly cloudy
Temperature: 41 F (5 C)
Dew Point: 35 F (2 C)
Relative Humidity: 80%
Pressure (altimeter): 29.68 in. Hg (1005 hPa)
ob: SCBA 202000Z 28029KT 9999 SCT030 05/02 Q1005 RESHRA
cycle: 20

Station Type Date Time Source
SCBA TAF 2019/09/20 18:03 UTC NOAA

TAF SCBA 201609Z 2018/2118 30030G40KT 9999 SCT040 TX06/2019Z TN03/2112Z
TEMPO 2018/2022 32040G50KT 8000 -SHRA BKN025
BECMG 2101/2103 31026KT
BECMG 2109/2111 31015KT

Example: see airport list